createdAt,value
2023-02-19T00:01:33.661Z,101224.41
2023-02-19T00:04:02.411Z,101219.94
2023-02-19T00:06:30.733Z,101209.75
2023-02-19T00:08:57.539Z,101218.28
2023-02-19T00:11:26.698Z,101219.34
2023-02-19T00:13:55.552Z,101210.44
2023-02-19T00:16:30.566Z,101221.88
2023-02-19T00:18:59.244Z,101213.41
2023-02-19T00:21:26.921Z,101213.84
2023-02-19T00:23:56.606Z,101200.47
2023-02-19T00:26:24.004Z,101198.78
2023-02-19T00:28:52.116Z,101193.88
2023-02-19T00:31:23.352Z,101208.97
2023-02-19T00:33:53.637Z,101208.75
2023-02-19T00:36:20.789Z,101208.75
2023-02-19T00:38:47.930Z,101215.94
2023-02-19T00:41:21.247Z,101211.28
2023-02-19T00:43:59.169Z,101203.66
2023-02-19T00:46:28.164Z,101204.25
2023-02-19T00:48:58.494Z,101196.84
2023-02-19T00:51:27.653Z,101206.41
2023-02-19T00:53:54.440Z,101205.75
2023-02-19T00:56:21.658Z,101200.25
2023-02-19T00:58:48.963Z,101200.25
2023-02-19T01:01:16.302Z,101202.16
2023-02-19T01:03:43.229Z,101189.69
2023-02-19T01:06:11.483Z,101197.31
2023-02-19T01:08:38.135Z,101200.94
2023-02-19T01:11:05.950Z,101193.75
2023-02-19T01:13:33.677Z,101185.91
2023-02-19T01:16:14.976Z,101184.81
2023-02-19T01:18:41.970Z,101188.41
2023-02-19T01:21:12.916Z,101187.56
2023-02-19T01:23:40.196Z,101181.19
2023-02-19T01:26:08.560Z,101182.91
2023-02-19T01:28:35.610Z,101172.31
2023-02-19T01:31:04.142Z,101175.25
2023-02-19T01:33:30.818Z,101171.69
2023-02-19T01:35:57.759Z,101175.50
2023-02-19T01:38:24.201Z,101173.16
2023-02-19T01:41:06.511Z,101178.69
2023-02-19T01:43:34.818Z,101176.53
2023-02-19T01:46:01.546Z,101168.91
2023-02-19T01:48:37.520Z,101170.59
2023-02-19T01:51:10.851Z,101161.47
2023-02-19T01:53:41.711Z,101163.16
2023-02-19T01:56:12.295Z,101162.97
2023-02-19T01:58:39.555Z,101164.63
2023-02-19T02:01:08.819Z,101181.19
2023-02-19T02:03:41.935Z,101185.91
2023-02-19T02:06:15.817Z,101175.50
2023-02-19T02:09:01.041Z,101173.16
2023-02-19T02:11:27.826Z,101167.84
2023-02-19T02:13:54.870Z,101158.09
2023-02-19T02:16:28.393Z,101150.63
2023-02-19T02:19:51.193Z,101142.19
2023-02-19T02:22:35.650Z,101142.84
2023-02-19T02:25:23.134Z,101154.06
2023-02-19T02:27:56.250Z,101151.94
2023-02-19T02:30:37.749Z,101142.19
2023-02-19T02:33:17.404Z,101152.78
2023-02-19T02:35:58.049Z,101174.00
2023-02-19T02:38:30.692Z,101145.56
2023-02-19T02:40:58.616Z,101151.94
2023-02-19T02:43:25.808Z,101158.09
2023-02-19T02:45:52.322Z,101156.59
2023-02-19T02:48:26.894Z,101164.44
2023-02-19T02:51:03.960Z,101168.50
2023-02-19T02:54:07.387Z,101173.78
2023-02-19T02:56:35.019Z,101179.09
2023-02-19T02:59:03.985Z,101177.38
2023-02-19T03:01:56.409Z,101166.97
2023-02-19T03:04:35.206Z,101175.25
2023-02-19T03:07:08.606Z,101166.53
2023-02-19T03:09:40.525Z,101165.03
2023-02-19T03:12:31.578Z,101167.16
2023-02-19T03:15:21.968Z,101169.91
2023-02-19T03:18:11.605Z,101166.09
2023-02-19T03:20:42.008Z,101160.38
2023-02-19T03:23:10.978Z,101157.81
2023-02-19T03:25:58.056Z,101166.31
2023-02-19T03:28:49.733Z,101154.88
2023-02-19T03:31:21.034Z,101151.06
2023-02-19T03:33:54.436Z,101150.66
2023-02-19T03:36:28.245Z,101164.22
2023-02-19T03:39:06.481Z,101159.34
2023-02-19T03:41:59.437Z,101170.59
2023-02-19T03:44:42.308Z,101165.06
2023-02-19T03:47:28.650Z,101168.66
2023-02-19T03:50:02.184Z,101186.66
2023-02-19T03:52:31.441Z,101180.50
2023-02-19T03:55:08.004Z,101171.19
2023-02-19T03:57:43.072Z,101179.84
2023-02-19T04:00:18.211Z,101180.72
2023-02-19T04:02:50.348Z,101184.53
2023-02-19T04:05:18.585Z,101194.47
2023-02-19T04:07:48.801Z,101199.78
2023-02-19T04:10:17.009Z,101194.47
2023-02-19T04:12:50.274Z,101193.25
2023-02-19T04:15:22.877Z,101200.22
2023-02-19T04:17:57.283Z,101202.78
2023-02-19T04:20:27.293Z,101206.16
2023-02-19T04:22:54.037Z,101197.72
2023-02-19T04:25:21.694Z,101208.31
2023-02-19T04:27:48.489Z,101207.44
2023-02-19T04:30:15.317Z,101208.94
2023-02-19T04:32:41.845Z,101212.97
2023-02-19T04:35:08.486Z,101217.19
2023-02-19T04:37:34.920Z,101224.00
2023-02-19T04:40:01.553Z,101227.41
2023-02-19T04:42:27.998Z,101217.88
2023-02-19T04:44:54.429Z,101230.38
2023-02-19T04:47:20.841Z,101241.00
2023-02-19T04:49:47.247Z,101234.84
2023-02-19T04:52:13.691Z,101252.22
2023-02-19T04:54:40.111Z,101253.69
2023-02-19T04:57:06.514Z,101250.09
2023-02-19T04:59:33.093Z,101249.03
2023-02-19T05:01:59.504Z,101238.00
2023-02-19T05:04:26.032Z,101235.50
2023-02-19T05:06:52.527Z,101225.28
2023-02-19T05:09:19.041Z,101225.72
2023-02-19T05:11:45.469Z,101239.91
2023-02-19T05:14:11.891Z,101247.13
2023-02-19T05:16:38.265Z,101250.56
2023-02-19T05:19:04.670Z,101262.19
2023-02-19T05:21:31.107Z,101258.78
2023-02-19T05:23:57.499Z,101250.31
2023-02-19T05:26:24.312Z,101253.69
2023-02-19T05:28:53.141Z,101260.50
2023-02-19T05:31:20.755Z,101264.09
2023-02-19T05:33:51.214Z,101275.13
2023-02-19T05:36:19.661Z,101266.00
2023-02-19T05:38:46.617Z,101275.13
2023-02-19T05:41:15.966Z,101276.41
2023-02-19T05:43:44.837Z,101270.25
2023-02-19T05:46:14.350Z,101283.81
2023-02-19T05:48:41.145Z,101292.28
2023-02-19T05:51:13.984Z,101281.91
2023-02-19T05:53:41.023Z,101289.97
2023-02-19T05:56:38.889Z,101287.44
2023-02-19T05:59:20.308Z,101298.47
2023-02-19T06:01:48.238Z,101294.66
2023-02-19T06:04:15.441Z,101288.06
2023-02-19T06:06:42.407Z,101309.06
2023-02-19T06:09:09.753Z,101309.91
2023-02-19T06:11:36.534Z,101314.78
2023-02-19T06:14:03.147Z,101305.88
2023-02-19T06:16:29.667Z,101318.56
2023-02-19T06:18:56.219Z,101315.81
2023-02-19T06:21:22.854Z,101324.06
2023-02-19T06:23:49.311Z,101331.09
2023-02-19T06:26:19.700Z,101334.28
2023-02-19T06:28:47.918Z,101335.09
2023-02-19T06:31:14.814Z,101336.59
2023-02-19T06:33:41.941Z,101332.13
2023-02-19T06:36:12.545Z,101344.88
2023-02-19T06:38:39.465Z,101350.38
2023-02-19T06:41:07.099Z,101342.75
2023-02-19T06:43:34.517Z,101347.22
2023-02-19T06:46:02.372Z,101350.59
2023-02-19T06:48:29.825Z,101353.13
2023-02-19T06:50:56.726Z,101338.06
2023-02-19T06:53:32.236Z,101358.59
2023-02-19T06:56:07.538Z,101363.91
2023-02-19T06:58:34.656Z,101366.69
2023-02-19T07:01:01.397Z,101368.38
2023-02-19T07:03:28.003Z,101368.38
2023-02-19T07:05:54.586Z,101367.31
2023-02-19T07:08:21.097Z,101360.75
2023-02-19T07:10:57.639Z,101364.34
2023-02-19T07:13:26.641Z,101361.16
2023-02-19T07:15:59.862Z,101383.22
2023-02-19T07:18:26.371Z,101385.97
2023-02-19T07:20:52.799Z,101375.78
2023-02-19T07:23:19.249Z,101391.47
2023-02-19T07:25:45.845Z,101395.72
2023-02-19T07:28:12.342Z,101403.78
2023-02-19T07:30:38.723Z,101410.34
2023-02-19T07:33:05.113Z,101401.66
2023-02-19T07:35:31.506Z,101407.44
2023-02-19T07:37:57.922Z,101420.78
2023-02-19T07:40:24.316Z,101423.13
2023-02-19T07:42:50.684Z,101421.66
2023-02-19T07:45:17.229Z,101411.94
2023-02-19T07:47:44.009Z,101427.19
2023-02-19T07:50:13.018Z,101429.75
2023-02-19T07:52:40.292Z,101433.13
2023-02-19T07:55:07.153Z,101443.75
2023-02-19T07:57:33.560Z,101444.84
2023-02-19T08:00:00.168Z,101447.16
2023-02-19T08:02:45.330Z,101447.78
2023-02-19T08:05:11.731Z,101445.69
2023-02-19T08:07:38.189Z,101447.59
2023-02-19T08:10:24.030Z,101457.81
2023-02-19T08:13:18.984Z,101456.34
2023-02-19T08:15:46.426Z,101458.06
2023-02-19T08:18:14.034Z,101466.97
2023-02-19T08:20:40.716Z,101474.38
2023-02-19T08:23:07.592Z,101477.78
2023-02-19T08:25:34.418Z,101487.09
2023-02-19T08:28:01.340Z,101485.38
2023-02-19T08:30:28.988Z,101494.94
2023-02-19T08:32:55.890Z,101500.91
2023-02-19T08:35:22.401Z,101504.94
2023-02-19T08:37:48.849Z,101511.94
2023-02-19T08:40:15.351Z,101504.28
2023-02-19T08:42:41.786Z,101511.94
2023-02-19T08:45:08.764Z,101511.72
2023-02-19T08:47:36.470Z,101519.78
2023-02-19T08:50:04.941Z,101512.34
2023-02-19T08:52:31.685Z,101521.47
2023-02-19T08:54:58.277Z,101523.56
2023-02-19T08:57:25.128Z,101528.66
2023-02-19T08:59:51.538Z,101542.06
2023-02-19T09:02:18.100Z,101542.25
2023-02-19T09:04:44.529Z,101540.78
2023-02-19T09:07:12.588Z,101537.38
2023-02-19T09:09:39.762Z,101536.75
2023-02-19T09:12:08.506Z,101543.38
2023-02-19T09:14:35.493Z,101548.69
2023-02-19T09:17:03.551Z,101551.06
2023-02-19T09:19:31.064Z,101547.06
2023-02-19T09:21:57.563Z,101544.31
2023-02-19T09:24:24.511Z,101537.06
2023-02-19T09:26:52.035Z,101550.44
2023-02-19T09:29:19.338Z,101536.88
2023-02-19T09:31:46.384Z,101547.06
2023-02-19T09:34:13.099Z,101551.75
2023-02-19T09:36:40.237Z,101552.00
2023-02-19T09:39:08.374Z,101558.56
2023-02-19T09:41:38.540Z,101550.97
2023-02-19T09:44:09.890Z,101562.84
2023-02-19T09:46:46.112Z,101560.31
2023-02-19T09:49:19.443Z,101563.94
2023-02-19T09:51:51.569Z,101571.41
2023-02-19T09:54:23.774Z,101574.38
2023-02-19T09:56:50.981Z,101573.97
2023-02-19T09:59:40.135Z,101569.28
2023-02-19T10:02:25.768Z,101584.38
2023-02-19T10:04:52.918Z,101575.66
2023-02-19T10:07:23.635Z,101576.28
2023-02-19T10:09:58.588Z,101587.75
2023-02-19T10:12:28.816Z,101588.19
2023-02-19T10:15:01.651Z,101591.38
2023-02-19T10:17:34.470Z,101604.13
2023-02-19T10:20:04.215Z,101611.34
2023-02-19T10:22:33.869Z,101602.44
2023-02-19T10:25:00.286Z,101604.59
2023-02-19T10:27:30.840Z,101605.41
2023-02-19T10:29:58.774Z,101600.53
2023-02-19T10:32:27.387Z,101596.91
2023-02-19T10:35:10.908Z,101611.41
2023-02-19T10:37:44.848Z,101614.16
2023-02-19T10:40:24.534Z,101624.56
2023-02-19T10:42:55.882Z,101610.78
2023-02-19T10:45:36.141Z,101613.56
2023-02-19T10:48:03.572Z,101624.41
2023-02-19T10:50:32.961Z,101635.66
2023-02-19T10:53:01.155Z,101634.81
2023-02-19T10:55:31.322Z,101641.63
2023-02-19T10:57:58.332Z,101634.19
2023-02-19T11:00:30.488Z,101637.38
2023-02-19T11:03:15.167Z,101650.56
2023-02-19T11:05:51.189Z,101642.91
2023-02-19T11:08:22.827Z,101650.13
2023-02-19T11:10:50.122Z,101661.38
2023-02-19T11:13:26.645Z,101675.19
2023-02-19T11:15:55.241Z,101672.59
2023-02-19T11:18:25.484Z,101671.31
2023-02-19T11:21:01.567Z,101679.81
2023-02-19T11:23:44.895Z,101682.78
2023-02-19T11:26:24.202Z,101685.53
2023-02-19T11:28:58.514Z,101684.22
2023-02-19T11:31:27.803Z,101681.25
2023-02-19T11:33:59.772Z,101689.97
2023-02-19T11:36:32.183Z,101685.09
2023-02-19T11:39:03.127Z,101692.69
2023-02-19T11:41:41.826Z,101710.94
2023-02-19T11:44:17.476Z,101703.66
2023-02-19T11:47:25.034Z,101725.25
2023-02-19T11:50:00.407Z,101720.31
2023-02-19T11:52:46.371Z,101721.09
2023-02-19T11:55:18.841Z,101722.69
2023-02-19T11:57:58.929Z,101723.09
2023-02-19T12:00:27.897Z,101723.47
2023-02-19T12:03:17.221Z,101713.28
2023-02-19T12:05:53.522Z,101709.66
2023-02-19T12:08:50.305Z,101716.13
2023-02-19T12:11:37.863Z,101725.22
2023-02-19T12:14:07.129Z,101725.78
2023-02-19T12:16:51.134Z,101720.47
2023-02-19T12:19:25.597Z,101716.03
2023-02-19T12:22:19.104Z,101719.63
2023-02-19T12:25:25.491Z,101717.72
2023-02-19T12:28:08.463Z,101708.91
2023-02-19T12:30:56.323Z,101712.06
2023-02-19T12:33:44.678Z,101705.38
2023-02-19T12:36:26.174Z,101703.19
2023-02-19T12:39:14.651Z,101700.94
2023-02-19T12:41:59.678Z,101688.56
2023-02-19T12:44:48.674Z,101677.47
2023-02-19T12:47:27.659Z,101674.78
2023-02-19T12:50:05.789Z,101676.25
2023-02-19T12:52:40.903Z,101670.72
2023-02-19T12:55:29.456Z,101667.75
2023-02-19T12:57:59.042Z,101676.47
2023-02-19T13:00:49.430Z,101684.78
2023-02-19T13:03:22.626Z,101682.22
2023-02-19T13:06:03.663Z,101679.66
2023-02-19T13:08:57.862Z,101677.97
2023-02-19T13:11:38.524Z,101691.16
2023-02-19T13:14:24.201Z,101704.28
2023-02-19T13:16:55.931Z,101717.41
2023-02-19T13:19:22.344Z,101714.75
2023-02-19T13:22:26.186Z,101709.81
2023-02-19T13:24:55.116Z,101725.81
2023-02-19T13:30:35.633Z,101731.41
2023-02-19T13:33:33.561Z,101717.88
2023-02-19T13:36:14.454Z,101723.44
2023-02-19T13:38:47.813Z,101723.28
2023-02-19T13:41:26.771Z,101724.56
2023-02-19T13:44:00.440Z,101732.50
2023-02-19T13:46:41.590Z,101733.34
2023-02-19T13:49:37.314Z,101728.91
2023-02-19T13:52:29.865Z,101724.16
2023-02-19T13:55:35.361Z,101717.78
2023-02-19T13:58:32.726Z,101714.56
2023-02-19T14:01:06.894Z,101716.25
2023-02-19T14:04:07.675Z,101722.22
2023-02-19T14:07:05.572Z,101715.25
2023-02-19T14:09:41.009Z,101715.50
2023-02-19T14:12:07.339Z,101720.88
2023-02-19T14:14:54.489Z,101719.91
2023-02-19T14:17:35.850Z,101718.44
2023-02-19T14:20:17.569Z,101721.25
2023-02-19T14:22:47.345Z,101726.16
2023-02-19T14:25:31.973Z,101730.84
2023-02-19T14:28:10.600Z,101732.34
2023-02-19T14:30:54.337Z,101745.09
2023-02-19T14:33:27.223Z,101754.47
2023-02-19T14:35:59.988Z,101751.88
2023-02-19T14:38:39.271Z,101751.81
2023-02-19T14:41:06.698Z,101756.91
2023-02-19T14:43:35.479Z,101760.31
2023-02-19T14:46:15.111Z,101775.97
2023-02-19T14:48:48.012Z,101775.31
2023-02-19T14:51:29.620Z,101772.53
2023-02-19T14:53:57.773Z,101770.97
2023-02-19T14:56:31.903Z,101782.84
2023-02-19T14:59:07.262Z,101796.81
2023-02-19T15:01:33.732Z,101791.59
2023-02-19T15:04:00.803Z,101793.84
2023-02-19T15:06:28.707Z,101807.38
2023-02-19T15:09:00.053Z,101800.38
2023-02-19T15:11:29.643Z,101814.53
2023-02-19T15:13:59.204Z,101803.03
2023-02-19T15:16:28.771Z,101809.38
2023-02-19T15:18:57.974Z,101804.72
2023-02-19T15:21:27.139Z,101795.84
2023-02-19T15:23:56.058Z,101802.41
2023-02-19T15:26:31.726Z,101797.56
2023-02-19T15:29:05.014Z,101799.66
2023-02-19T15:31:31.504Z,101800.06
2023-02-19T15:33:58.175Z,101800.06
2023-02-19T15:36:33.891Z,101791.59
2023-02-19T15:39:02.570Z,101782.66
2023-02-19T15:41:34.447Z,101778.38
2023-02-19T15:44:34.653Z,101778.13
2023-02-19T15:47:08.592Z,101777.06
2023-02-19T15:49:48.899Z,101773.19
2023-02-19T15:52:31.080Z,101763.38
2023-02-19T15:55:23.861Z,101764.84
2023-02-19T15:58:06.166Z,101766.34
2023-02-19T16:00:41.438Z,101751.03
2023-02-19T16:03:17.054Z,101738.69
2023-02-19T16:05:43.615Z,101744.47
2023-02-19T16:08:13.089Z,101743.63
2023-02-19T16:10:39.505Z,101738.97
2023-02-19T16:13:08.180Z,101740.22
2023-02-19T16:15:35.533Z,101749.28
2023-02-19T16:18:02.180Z,101751.38
2023-02-19T16:20:35.010Z,101740.53
2023-02-19T16:23:13.639Z,101746.53
2023-02-19T16:25:44.119Z,101743.75
2023-02-19T16:28:13.843Z,101751.00
2023-02-19T16:30:41.463Z,101752.88
2023-02-19T16:33:48.205Z,101752.25
2023-02-19T16:36:33.070Z,101750.94
2023-02-19T16:39:09.050Z,101759.00
2023-02-19T16:41:47.689Z,101753.03
2023-02-19T16:44:27.431Z,101764.44
2023-02-19T16:47:07.111Z,101763.59
2023-02-19T16:49:33.666Z,101772.09
2023-02-19T16:52:04.078Z,101775.03
2023-02-19T16:54:30.951Z,101789.78
2023-02-19T16:56:57.319Z,101789.34
2023-02-19T16:59:23.703Z,101794.00
2023-02-19T17:01:50.226Z,101796.56
2023-02-19T17:04:16.912Z,101801.63
2023-02-19T17:06:44.395Z,101804.75
2023-02-19T17:09:10.943Z,101804.31
2023-02-19T17:11:37.371Z,101826.53
2023-02-19T17:14:04.095Z,101820.56
2023-02-19T17:16:40.380Z,101833.47
2023-02-19T17:19:18.951Z,101835.59
2023-02-19T17:21:46.704Z,101837.03
2023-02-19T17:24:13.670Z,101840.81
2023-02-19T17:26:40.317Z,101844.63
2023-02-19T17:29:09.378Z,101846.72
2023-02-19T17:31:36.112Z,101859.47
2023-02-19T17:34:02.604Z,101866.88
2023-02-19T17:36:30.874Z,101876.00
2023-02-19T17:38:59.164Z,101878.06
2023-02-19T17:41:26.070Z,101888.44
2023-02-19T17:43:53.554Z,101897.47
2023-02-19T17:46:25.785Z,101904.22
2023-02-19T17:48:53.497Z,101908.41
2023-02-19T17:51:20.572Z,101916.94
2023-02-19T17:53:47.242Z,101903.34
2023-02-19T17:56:26.107Z,101910.50
2023-02-19T17:58:54.751Z,101921.22
2023-02-19T18:01:21.684Z,101909.25
2023-02-19T18:03:48.086Z,101917.19
2023-02-19T18:06:14.560Z,101913.31
2023-02-19T18:08:49.964Z,101916.63
2023-02-19T18:11:16.664Z,101913.22
2023-02-19T18:13:43.183Z,101907.72
2023-02-19T18:16:09.943Z,101913.88
2023-02-19T18:18:36.994Z,101920.03
2023-02-19T18:21:04.592Z,101919.38
2023-02-19T18:23:31.013Z,101927.63
2023-02-19T18:25:57.425Z,101927.25
2023-02-19T18:28:23.944Z,101927.25
2023-02-19T18:30:50.541Z,101926.22
2023-02-19T18:33:17.099Z,101925.19
2023-02-19T18:35:49.218Z,101923.47
2023-02-19T18:38:16.047Z,101921.75
2023-02-19T18:40:42.573Z,101933.13
2023-02-19T18:43:09.016Z,101934.06
2023-02-19T18:45:37.243Z,101913.84
2023-02-19T18:48:04.917Z,101923.03
2023-02-19T18:50:33.290Z,101939.91
2023-02-19T18:52:59.697Z,101941.81
2023-02-19T18:55:26.101Z,101940.44
2023-02-19T18:57:52.555Z,101935.47
2023-02-19T19:00:23.660Z,101948.56
2023-02-19T19:02:51.445Z,101944.31
2023-02-19T19:05:22.709Z,101953.69
2023-02-19T19:07:54.060Z,101953.69
2023-02-19T19:10:21.475Z,101947.16
2023-02-19T19:12:48.416Z,101946.13
2023-02-19T19:15:18.261Z,101942.53
2023-02-19T19:17:45.746Z,101939.47
2023-02-19T19:20:12.629Z,101941.19
2023-02-19T19:22:39.220Z,101941.84
2023-02-19T19:25:06.263Z,101944.41
2023-02-19T19:27:32.657Z,101947.81
2023-02-19T19:29:59.030Z,101955.94
2023-02-19T19:32:25.468Z,101960.41
2023-02-19T19:34:51.965Z,101944.06
2023-02-19T19:37:18.422Z,101946.66
2023-02-19T19:39:44.799Z,101950.44
2023-02-19T19:42:11.301Z,101950.78
2023-02-19T19:44:37.867Z,101960.94
2023-02-19T19:47:04.374Z,101969.41
2023-02-19T19:49:30.740Z,101955.47
2023-02-19T19:52:01.145Z,101963.06
2023-02-19T19:54:28.497Z,101959.94
2023-02-19T19:56:55.272Z,101963.91
2023-02-19T19:59:23.116Z,101961.53
2023-02-19T20:01:51.544Z,101967.50
2023-02-19T20:04:22.772Z,101983.72
2023-02-19T20:06:49.485Z,101973.38
2023-02-19T20:09:17.712Z,101975.47
2023-02-19T20:11:49.732Z,101982.66
2023-02-19T20:14:17.677Z,101990.75
2023-02-19T20:16:44.870Z,101999.88
2023-02-19T20:19:11.614Z,101988.00
2023-02-19T20:21:38.225Z,101983.53
2023-02-19T20:24:05.160Z,101991.78
2023-02-19T20:26:32.000Z,101986.13
2023-02-19T20:28:58.765Z,101993.34
2023-02-19T20:31:28.530Z,101998.16
2023-02-19T20:33:55.018Z,101989.91
2023-02-19T20:36:21.570Z,101986.97
2023-02-19T20:38:49.512Z,101995.88
2023-02-19T20:41:16.018Z,101986.13
2023-02-19T20:43:42.470Z,101994.38
2023-02-19T20:46:08.970Z,101989.91
2023-02-19T20:48:35.449Z,101996.44
2023-02-19T20:51:02.004Z,101991.31
2023-02-19T20:53:30.148Z,102009.69
2023-02-19T20:55:56.703Z,102008.19
2023-02-19T20:58:24.640Z,102013.00
2023-02-19T21:00:53.492Z,102014.03
2023-02-19T21:03:20.516Z,102007.84
2023-02-19T21:05:47.102Z,102015.06
2023-02-19T21:08:14.968Z,102013.84
2023-02-19T21:10:41.345Z,102022.78
2023-02-19T21:13:07.754Z,102016.59
2023-02-19T21:15:34.333Z,102022.78
2023-02-19T21:18:00.745Z,102017.66
2023-02-19T21:20:27.316Z,102019.34
2023-02-19T21:22:53.738Z,102017.66
2023-02-19T21:25:20.143Z,102011.09
2023-02-19T21:27:46.581Z,102007.50
2023-02-19T21:30:13.316Z,102019.53
2023-02-19T21:32:39.765Z,102024.84
2023-02-19T21:35:06.516Z,102028.66
2023-02-19T21:37:32.841Z,102036.03
2023-02-19T21:40:00.459Z,102043.28
2023-02-19T21:42:27.060Z,102036.03
2023-02-19T21:44:53.482Z,102036.03
2023-02-19T21:47:19.867Z,102043.28
2023-02-19T21:49:46.338Z,102047.41
2023-02-19T21:52:12.790Z,102060.97
2023-02-19T21:54:39.170Z,102049.97
2023-02-19T21:57:05.657Z,102049.97
2023-02-19T21:59:32.068Z,102053.94
2023-02-19T22:01:58.533Z,102052.22
2023-02-19T22:04:25.034Z,102043.97
2023-02-19T22:06:55.157Z,102053.25
2023-02-19T22:09:21.602Z,102049.19
2023-02-19T22:11:48.035Z,102052.97
2023-02-19T22:14:14.584Z,102055.00
2023-02-19T22:16:41.095Z,102057.97
2023-02-19T22:19:07.531Z,102058.13
2023-02-19T22:21:34.088Z,102055.75
2023-02-19T22:24:02.598Z,102057.81
2023-02-19T22:26:32.374Z,102054.38
2023-02-19T22:28:59.568Z,102058.34
2023-02-19T22:31:27.587Z,102059.75
2023-02-19T22:33:56.149Z,102053.53
2023-02-19T22:36:25.298Z,102049.78
2023-02-19T22:38:52.649Z,102046.75
2023-02-19T22:41:20.283Z,102042.44
2023-02-19T22:43:47.050Z,102044.53
2023-02-19T22:46:19.130Z,102051.03
2023-02-19T22:48:45.741Z,102044.88
2023-02-19T22:51:14.218Z,102045.03
2023-02-19T22:53:48.985Z,102045.25
2023-02-19T22:56:17.442Z,102036.31
2023-02-19T22:58:44.631Z,102052.97
2023-02-19T23:01:13.515Z,102056.06
2023-02-19T23:03:51.452Z,102052.81
2023-02-19T23:06:25.122Z,102052.13
2023-02-19T23:08:52.544Z,102051.78
2023-02-19T23:11:24.343Z,102056.97
2023-02-19T23:13:50.910Z,102059.38
2023-02-19T23:16:18.153Z,102070.03
2023-02-19T23:18:44.721Z,102052.72
2023-02-19T23:21:11.378Z,102052.88
2023-02-19T23:23:37.860Z,102047.59
2023-02-19T23:26:04.613Z,102051.00
2023-02-19T23:28:31.111Z,102044.34
2023-02-19T23:30:57.705Z,102040.38
2023-02-19T23:33:24.330Z,102035.78
2023-02-19T23:35:50.709Z,102036.44
2023-02-19T23:38:17.262Z,102029.06
2023-02-19T23:40:43.784Z,102026.16
2023-02-19T23:43:10.181Z,102036.22
2023-02-19T23:45:36.654Z,102039.81
2023-02-19T23:48:03.726Z,102043.38
2023-02-19T23:50:30.291Z,102062.25
2023-02-19T23:52:59.143Z,102057.59
2023-02-19T23:55:26.672Z,102056.72
2023-02-19T23:57:53.525Z,102054.81
